Gold Creek, Montana
Current Conditions -  °F | °C
As of 3:53 PM on Friday 28 Nov 2014 (Local Time) from KHLN Reporting Station
Clear Clear  
Wind Chill: 54°   Ceiling: Unl
Heat Index: 54°   Visibility: 10mi
Dew Point: 29°   Wind: 8mph
Humidity: 38%   Direction: 250°WSW
Pressure: 29.47"   Gusts: NA
Location:  46.57°N, 112.96°W
Report Text: KHLN 282253Z 25007KT 10SM CLR 12/M02 A2947 RMK AO2 SLP987 T01221017
Loading
Personal Weather Stations






























Interactive Weather Map New forecast layout! Learn more

10-Day Weather Forecast

Advertisements
Track Severe Weather on mobile